Weather at Lucknow Airpark

Public forecast

Using degrees Celsius for public forecast. Weather courtesy of forecast.io.

Closest aviation weather report (METAR) to Lucknow Airpark

Closest report is Wiarton Airport, 49.6 nm (91.8 km) NNE. Retrieved 2021/06/24 17:00 UTC (45 minutes ago):

CYVV 241700Z 19021G26KT 15SM FEW070 OVC250 26/09 A3003 RMK AC1CI7 SLP170 DENSITY ALT 2100FT

Closest aviation forecast (TAF) to Lucknow Airpark

Closest forecast is Wiarton Airport, 49.6 nm (91.8 km) NNE. Retrieved 2021/06/24 14:00 UTC (4 hours ago):

TAF CYVV 241338Z 2414/2423 21015G25KT P6SM SCT040 FM242000 21015G30KT P6SM SCT040 BKN100 TEMPO 2420/2423 P6SM -SHRA BKN040 BKN100 RMK NXT FCST BY 242000Z